Time;durP1;ratioP1;P1;durP2;ratioP2;P2;SDS_P1;SDS_P2;PMS_P1;PMS_P2;Temp;Humidity;BMP_temperature;BMP_pressure;BME280_temperature;BME280_humidity;BME280_pressure;Samples;Min_cycle;Max_cycle;Signal;HPM_P1;HPM_P2
2022/12/11 00:00:42;;;;;;;;;6.00;5.25;;;;;21.07;37.93;101008.34;5032814;28;45345;-72
2022/12/11 00:03:08;;;;;;;;;4.00;4.00;;;;;21.06;38.25;101004.88;5032728;28;45481;-71
2022/12/11 00:05:33;;;;;;;;;7.75;4.75;;;;;21.06;38.01;101004.88;5032276;28;46610;-72
2022/12/11 00:07:59;;;;;;;;;6.50;6.50;;;;;21.00;37.94;100992.28;5032849;28;45451;-72
2022/12/11 00:10:25;;;;;;;;;7.75;6.00;;;;;21.00;38.23;100988.84;5032854;28;45384;-72
2022/12/11 00:12:50;;;;;;;;;4.00;4.00;;;;;21.04;38.15;100993.63;5032355;28;45360;-72
2022/12/11 00:15:16;;;;;;;;;6.00;5.50;;;;;20.92;38.12;100974.59;5032570;28;45919;-71
2022/12/11 00:17:41;;;;;;;;;5.50;4.00;;;;;20.93;38.37;100972.78;5032593;28;45465;-72
2022/12/11 00:20:07;;;;;;;;;7.50;7.50;;;;;21.02;37.90;100981.56;5032356;28;45387;-72
2022/12/11 00:22:32;;;;;;;;;5.25;5.00;;;;;21.01;38.12;100983.38;5032575;28;45302;-71
2022/12/11 00:24:58;;;;;;;;;6.75;6.00;;;;;20.93;37.95;100978.91;5032352;28;46850;-72
2022/12/11 00:27:23;;;;;;;;;4.25;4.25;;;;;21.01;37.94;100987.81;5032395;28;45349;-72
2022/12/11 00:29:48;;;;;;;;;7.00;5.00;;;;;20.99;37.87;100980.06;5032511;28;45321;-72
2022/12/11 00:32:14;;;;;;;;;6.00;4.00;;;;;21.00;37.78;100987.00;5041811;27;45406;-72
2022/12/11 00:34:39;;;;;;;;;4.75;4.75;;;;;21.00;37.79;100987.00;5052129;28;46182;-71
2022/12/11 00:37:04;;;;;;;;;7.00;5.25;;;;;21.00;37.87;100978.25;5052399;28;45347;-72
2022/12/11 00:39:30;;;;;;;;;8.75;7.25;;;;;20.99;37.43;100988.00;5052402;28;45176;-71
2022/12/11 00:41:55;;;;;;;;;7.00;5.25;;;;;20.99;37.77;100979.22;5052474;28;45377;-71
2022/12/11 00:44:20;;;;;;;;;5.00;4.00;;;;;20.95;37.93;100971.63;5052281;28;47044;-72
2022/12/11 00:46:46;;;;;;;;;3.25;3.25;;;;;20.96;37.70;100975.09;5052302;28;45297;-72
2022/12/11 00:49:11;;;;;;;;;5.25;5.25;;;;;20.97;37.53;100974.13;5052070;28;45217;-72
2022/12/11 00:51:37;;;;;;;;;7.00;4.50;;;;;20.92;37.87;100963.22;5052236;28;45464;-72
2022/12/11 00:54:03;;;;;;;;;3.00;3.00;;;;;20.94;37.70;100955.94;5046115;28;46924;-72
2022/12/11 00:56:28;;;;;;;;;4.50;4.50;;;;;20.96;37.74;100959.22;5032051;28;45286;-72
2022/12/11 00:58:54;;;;;;;;;7.50;5.50;;;;;20.94;37.62;100956.78;5032099;28;45417;-72
2022/12/11 01:01:24;;;;;;;;;10.50;6.00;;;;;20.81;37.63;100933.50;5031977;28;45326;-72
2022/12/11 01:03:49;;;;;;;;;7.25;4.50;;;;;20.94;37.74;100959.41;5031596;28;46370;-73
2022/12/11 01:06:20;;;;;;;;;5.50;5.00;;;;;20.96;37.67;100948.66;5031862;28;45432;-71
2022/12/11 01:08:46;;;;;;;;;3.50;3.50;;;;;20.95;37.74;100947.81;5032058;28;45330;-72
2022/12/11 01:11:15;;;;;;;;;7.00;7.00;;;;;20.89;37.63;100940.59;5031961;28;45582;-72
2022/12/11 01:13:41;;;;;;;;;4.00;2.75;;;;;20.93;37.35;100944.53;5031575;28;47083;-72
2022/12/11 01:16:13;;;;;;;;;6.00;5.00;;;;;20.93;37.62;100946.34;5031726;28;45376;-72
2022/12/11 01:18:39;;;;;;;;;7.25;5.75;;;;;20.82;37.82;100926.38;5031369;28;45469;-72
2022/12/11 01:21:06;;;;;;;;;2.00;1.50;;;;;20.94;37.39;100953.28;5031744;28;45372;-72
2022/12/11 01:23:32;;;;;;;;;3.75;3.50;;;;;20.93;37.42;100959.56;5031377;28;46594;-72
2022/12/11 01:26:14;;;;;;;;;6.50;5.00;;;;;20.89;37.70;100943.22;5033028;28;45401;-72
2022/12/11 01:28:40;;;;;;;;;5.75;5.00;;;;;20.92;37.85;100945.50;5035000;28;45330;-72
2022/12/11 01:31:14;;;;;;;;;5.00;3.50;;;;;20.92;37.52;100947.34;5034730;28;45442;-71
2022/12/11 01:33:39;;;;;;;;;8.25;7.00;;;;;20.92;37.24;100952.66;5014259;28;46348;-72
2022/12/11 01:36:19;;;;;;;;;7.25;6.75;;;;;20.90;37.39;100952.81;5014807;28;45266;-72
2022/12/11 01:38:46;;;;;;;;;6.00;5.00;;;;;20.91;37.64;100951.00;5014804;28;45362;-72
2022/12/11 01:41:12;;;;;;;;;4.75;4.75;;;;;20.91;37.70;100953.63;5014677;28;45480;-72
2022/12/11 01:44:05;;;;;;;;;5.50;5.00;;;;;20.91;37.76;100951.00;4996618;28;46961;-72
2022/12/11 01:46:34;;;;;;;;;5.00;5.00;;;;;20.91;37.56;100953.63;5014447;28;45413;-71
2022/12/11 01:49:03;;;;;;;;;4.25;4.25;;;;;20.84;37.39;100950.84;5014660;28;45395;-72
2022/12/11 01:51:32;;;;;;;;;5.25;5.25;;;;;20.83;37.77;100950.03;5014557;28;45373;-71
2022/12/11 01:54:06;;;;;;;;;5.50;5.50;;;;;20.89;37.70;100951.16;5019522;28;46522;-72
2022/12/11 01:56:34;;;;;;;;;5.25;5.25;;;;;20.89;37.54;100952.97;5034348;28;45391;-71
2022/12/11 01:59:06;;;;;;;;;5.50;4.75;;;;;20.88;37.18;100952.16;5034450;28;45376;-72
2022/12/11 02:01:50;;;;;;;;;7.50;5.25;;;;;20.88;37.67;100956.59;5033796;28;45418;-71
2022/12/11 02:04:17;;;;;;;;;4.33;4.00;;;;;20.87;37.63;100954.97;5034228;28;46335;-72
2022/12/11 02:06:48;;;;;;;;;4.75;4.75;;;;;20.87;37.52;100955.78;5034152;28;45353;-72
2022/12/11 02:09:20;;;;;;;;;5.50;4.25;;;;;20.85;37.41;100955.13;5034273;28;45318;-71
2022/12/11 02:12:02;;;;;;;;;7.75;5.25;;;;;20.77;37.44;100945.41;5034180;28;45661;-71
2022/12/11 02:14:53;;;;;;;;;5.00;5.00;;;;;20.85;37.49;100958.59;5034023;28;46264;-72
2022/12/11 02:17:37;;;;;;;;;4.00;4.00;;;;;20.85;37.42;100955.97;5035805;28;45341;-72
2022/12/11 02:20:28;;;;;;;;;4.33;4.00;;;;;20.84;37.12;100948.22;5034097;28;45367;-72
2022/12/11 02:23:12;;;;;;;;;4.00;4.00;;;;;20.85;37.43;100952.47;5034059;28;45358;-72
2022/12/11 02:26:05;;;;;;;;;5.33;4.67;;;;;20.83;37.37;100949.19;5033968;28;46020;-72
2022/12/11 02:28:52;;;;;;;;;5.67;4.67;;;;;20.84;37.22;100932.34;5033947;28;45407;-71
2022/12/11 02:31:25;;;;;;;;;5.50;4.25;;;;;20.84;37.38;100925.22;5035217;28;45394;-71
2022/12/11 02:34:11;;;;;;;;;4.25;4.00;;;;;20.84;36.99;100927.06;5054258;28;45370;-71
2022/12/11 02:36:40;;;;;;;;;5.50;5.50;;;;;20.82;37.16;100929.00;5053896;28;46397;-71
2022/12/11 02:39:09;;;;;;;;;5.25;5.25;;;;;20.84;37.14;100930.50;5053925;28;45192;-72
2022/12/11 02:41:35;;;;;;;;;3.75;3.50;;;;;20.84;37.51;100927.84;5054001;28;45395;-72
2022/12/11 02:44:03;;;;;;;;;3.50;3.50;;;;;20.80;37.14;100912.50;5053604;28;45394;-72
2022/12/11 02:46:31;;;;;;;;;4.50;4.00;;;;;20.80;37.27;100918.63;5053689;27;45444;-71
2022/12/11 02:48:57;;;;;;;;;3.25;3.25;;;;;20.87;37.21;100915.31;5053830;28;45363;-72
2022/12/11 02:51:27;;;;;;;;;9.00;5.00;;;;;20.85;37.10;100910.16;5054004;28;45336;-72
2022/12/11 02:53:56;;;;;;;;;5.50;5.00;;;;;20.86;37.09;100906.53;5031451;28;45309;-71
2022/12/11 02:56:37;;;;;;;;;4.25;4.00;;;;;20.86;37.14;100911.84;5033580;28;47159;-71
2022/12/11 02:59:14;;;;;;;;;5.75;5.00;;;;;20.80;37.18;100904.56;5033200;28;45348;-72
2022/12/11 03:01:40;;;;;;;;;3.50;3.50;;;;;20.81;37.33;100908.88;5033444;28;45478;-72
2022/12/11 03:04:05;;;;;;;;;4.75;3.25;;;;;20.80;37.38;100912.50;5033497;28;45219;-72
2022/12/11 03:06:36;;;;;;;;;4.00;4.00;;;;;20.81;37.48;100907.06;5033677;28;45857;-72
2022/12/11 03:09:04;;;;;;;;;5.00;5.00;;;;;20.82;36.85;100916.63;5033536;28;45420;-72
2022/12/11 03:11:29;;;;;;;;;7.50;6.00;;;;;20.82;37.35;100921.09;5033627;28;45369;-72
2022/12/11 03:13:54;;;;;;;;;4.00;3.00;;;;;20.78;37.28;100904.75;5033264;28;45348;-72
2022/12/11 03:16:34;;;;;;;;;5.00;3.75;;;;;20.81;37.11;100912.34;5033467;28;46105;-72
2022/12/11 03:19:05;;;;;;;;;3.75;3.75;;;;;20.81;36.99;100917.63;5033369;28;45281;-72
2022/12/11 03:21:39;;;;;;;;;5.50;5.00;;;;;20.82;37.29;100929.00;5033465;28;45225;-72
2022/12/11 03:24:21;;;;;;;;;5.00;4.00;;;;;20.80;37.10;100921.25;5033263;28;45347;-72
2022/12/11 03:26:55;;;;;;;;;4.00;4.00;;;;;20.69;37.34;100901.28;5033198;28;45506;-71
2022/12/11 03:29:29;;;;;;;;;4.00;4.00;;;;;20.77;37.14;100908.38;5032791;28;45316;-72
2022/12/11 03:32:18;;;;;;;;;3.75;3.75;;;;;20.81;37.28;100911.53;5039874;28;45406;-72
2022/12/11 03:34:56;;;;;;;;;4.75;4.25;;;;;20.81;37.15;100903.59;5053366;28;45447;-71
2022/12/11 03:37:23;;;;;;;;;4.50;4.50;;;;;20.77;37.10;100900.44;5053040;28;47358;-71
2022/12/11 03:39:54;;;;;;;;;4.75;4.00;;;;;20.79;37.12;100903.75;5052961;28;45373;-71
2022/12/11 03:42:22;;;;;;;;;4.50;4.50;;;;;20.79;37.39;100902.94;5052872;28;45363;-71
2022/12/11 03:44:50;;;;;;;;;2.75;2.50;;;;;20.79;37.14;100911.66;5054188;27;45279;-72
2022/12/11 03:47:21;;;;;;;;;5.00;5.00;;;;;20.79;37.13;100906.38;5053067;28;45426;-71
2022/12/11 03:49:49;;;;;;;;;4.75;4.75;;;;;20.78;37.32;100896.81;5052455;28;45255;-71
2022/12/11 03:52:16;;;;;;;;;5.25;4.00;;;;;20.71;37.05;100893.22;5053020;28;45443;-72
2022/12/11 03:54:45;;;;;;;;;6.25;4.00;;;;;20.78;37.13;100903.91;5041832;28;45396;-71
2022/12/11 03:57:15;;;;;;;;;4.50;3.25;;;;;20.77;37.08;100905.72;5032513;28;46644;-71
2022/12/11 03:59:40;;;;;;;;;5.75;4.50;;;;;20.77;37.08;100899.63;5032694;28;45393;-71
2022/12/11 04:02:09;;;;;;;;;5.00;5.00;;;;;20.74;37.07;100901.59;5032597;28;45343;-72
2022/12/11 04:04:39;;;;;;;;;3.75;3.75;;;;;20.80;37.00;100896.63;5033007;28;45365;-71
2022/12/11 04:07:05;;;;;;;;;4.00;3.00;;;;;20.79;36.89;100897.66;5032688;28;48142;-71
2022/12/11 04:09:31;;;;;;;;;4.75;4.75;;;;;20.67;37.02;100883.94;5032592;28;45472;-72
2022/12/11 04:11:56;;;;;;;;;8.00;3.00;;;;;20.79;36.91;100895.81;5032684;27;45328;-72
2022/12/11 04:17:05;;;;;;;;;4.75;3.75;;;;;20.79;36.89;100877.28;5032657;28;45801;-71
2022/12/11 04:25:01;;;;;;;;;4.00;4.00;;;;;20.71;37.02;100861.47;5032742;28;45420;-72
2022/12/11 04:30:17;;;;;;;;;4.75;3.25;;;;;20.79;36.54;100865.91;5032408;28;45416;-71
2022/12/11 04:32:43;;;;;;;;;4.50;4.00;;;;;20.68;37.15;100844.16;5045641;28;45290;-71
2022/12/11 04:35:09;;;;;;;;;2.25;2.25;;;;;20.78;36.94;100861.63;5052507;28;45357;-71
2022/12/11 04:37:35;;;;;;;;;4.25;3.00;;;;;20.78;36.93;100861.63;5052372;28;45423;-71
2022/12/11 04:40:00;;;;;;;;;3.50;3.50;;;;;20.78;37.01;100861.63;5051777;28;45360;-72
2022/12/11 04:42:26;;;;;;;;;4.00;3.50;;;;;20.78;36.52;100851.88;5052436;28;45400;-72
2022/12/11 04:44:51;;;;;;;;;3.00;3.00;;;;;20.77;36.78;100850.22;5052368;28;45319;-71
2022/12/11 04:47:16;;;;;;;;;3.00;3.00;;;;;20.77;36.86;100842.28;5052280;28;46218;-71
2022/12/11 04:49:42;;;;;;;;;3.75;3.75;;;;;20.75;36.66;100844.28;5052178;28;45404;-71
2022/12/11 04:52:07;;;;;;;;;4.25;3.75;;;;;20.74;36.69;100845.25;5052216;28;45933;-71
2022/12/11 04:54:33;;;;;;;;;5.00;4.00;;;;;20.61;36.75;100836.06;5041871;27;45386;-71
2022/12/11 04:56:58;;;;;;;;;3.00;3.00;;;;;20.76;36.94;100853.03;5031932;28;45330;-71
2022/12/11 04:59:23;;;;;;;;;6.00;5.00;;;;;20.75;37.09;100846.91;5031983;28;45392;-71
2022/12/11 05:01:49;;;;;;;;;5.25;4.00;;;;;20.69;36.85;100847.59;5034707;28;45414;-71
2022/12/11 05:04:14;;;;;;;;;4.67;2.67;;;;;20.62;36.91;100834.25;5035076;28;45369;-71
2022/12/11 05:06:40;;;;;;;;;4.25;2.75;;;;;20.66;36.84;100830.25;5035087;28;45449;-71
2022/12/11 05:09:05;;;;;;;;;4.00;3.00;;;;;20.74;36.71;100846.09;5034799;28;45294;-71
2022/12/11 05:11:31;;;;;;;;;4.00;3.75;;;;;20.72;37.01;100842.78;5035133;28;45299;-71
2022/12/11 05:13:56;;;;;;;;;4.25;3.50;;;;;20.71;37.13;100833.19;5035263;28;45238;-72
2022/12/11 05:16:21;;;;;;;;;4.75;3.75;;;;;20.65;37.00;100819.84;5034846;28;45299;-72
2022/12/11 05:18:47;;;;;;;;;6.50;6.50;;;;;20.74;36.62;100832.88;5034885;28;45338;-72
2022/12/11 05:21:14;;;;;;;;;3.00;2.00;;;;;20.62;37.07;100808.63;5035106;28;45302;-72
2022/12/11 05:23:40;;;;;;;;;3.00;3.00;;;;;20.73;36.61;100822.47;5034526;28;45241;-72
2022/12/11 05:26:14;;;;;;;;;2.75;2.75;;;;;20.75;36.58;100823.13;5034760;28;47220;-72
2022/12/11 05:28:40;;;;;;;;;3.00;3.00;;;;;20.73;36.72;100822.47;5034531;28;45416;-71
2022/12/11 05:31:17;;;;;;;;;2.25;2.25;;;;;20.72;36.94;100824.28;5034979;28;45385;-71
2022/12/11 05:33:43;;;;;;;;;3.25;3.25;;;;;20.72;37.08;100832.22;5014926;28;45387;-71
2022/12/11 05:36:15;;;;;;;;;4.25;2.00;;;;;20.71;36.59;100827.91;5014752;28;45406;-71
2022/12/11 05:38:41;;;;;;;;;2.00;2.00;;;;;20.60;36.84;100809.81;5014503;28;45418;-72
2022/12/11 05:41:07;;;;;;;;;5.00;3.00;;;;;20.71;36.64;100825.28;5014702;28;45422;-71
2022/12/11 05:43:35;;;;;;;;;4.00;2.25;;;;;20.72;36.82;100820.81;5014761;28;45410;-72
2022/12/11 05:46:21;;;;;;;;;2.50;2.50;;;;;20.72;36.75;100826.09;5014543;28;46028;-72
2022/12/11 05:48:49;;;;;;;;;2.50;2.50;;;;;20.67;36.70;100809.94;5014533;28;45410;-72
2022/12/11 05:51:15;;;;;;;;;2.50;2.50;;;;;20.72;36.48;100823.44;5014626;28;45657;-71
2022/12/11 05:53:42;;;;;;;;;2.50;2.50;;;;;20.71;36.35;100819.97;5017039;28;46474;-72
2022/12/11 05:56:29;;;;;;;;;5.25;4.00;;;;;20.72;36.48;100821.63;5034193;28;45386;-72
2022/12/11 05:58:56;;;;;;;;;2.75;2.75;;;;;20.70;36.47;100821.00;5034283;28;45294;-72
2022/12/11 06:01:33;;;;;;;;;6.00;5.25;;;;;20.72;36.50;100823.44;5034332;28;45300;-72
2022/12/11 06:03:59;;;;;;;;;5.25;3.00;;;;;20.72;36.65;100820.81;5034337;28;45451;-71
2022/12/11 06:06:26;;;;;;;;;3.75;3.50;;;;;20.73;36.46;100820.66;5034375;28;45590;-71
2022/12/11 06:08:54;;;;;;;;;3.25;3.25;;;;;20.71;36.83;100817.34;5033965;28;45394;-72
2022/12/11 06:11:20;;;;;;;;;2.00;2.00;;;;;20.73;36.69;100819.81;5033945;28;45471;-72
2022/12/11 06:13:46;;;;;;;;;3.25;3.00;;;;;20.73;36.73;100822.47;5034253;28;45557;-72
2022/12/11 06:16:11;;;;;;;;;4.00;3.00;;;;;20.72;36.32;100819.00;5033994;28;45828;-72
2022/12/11 06:18:43;;;;;;;;;3.00;3.00;;;;;20.72;36.42;100820.81;5034273;28;45365;-71
2022/12/11 06:21:12;;;;;;;;;3.75;3.00;;;;;20.72;36.24;100821.63;5034348;28;45377;-71
2022/12/11 06:23:37;;;;;;;;;3.25;2.75;;;;;20.64;36.71;100803.16;5033780;28;45378;-72
2022/12/11 06:26:03;;;;;;;;;3.75;3.75;;;;;20.71;36.35;100824.47;5033878;28;47563;-71
2022/12/11 06:28:28;;;;;;;;;2.75;2.75;;;;;20.70;36.69;100817.53;5034032;28;45296;-70
2022/12/11 06:30:57;;;;;;;;;3.00;3.00;;;;;20.70;36.87;100823.63;5034196;28;45270;-72
2022/12/11 06:33:23;;;;;;;;;2.75;2.75;;;;;20.70;36.45;100825.44;5052804;28;45318;-71
2022/12/11 06:35:48;;;;;;;;;3.00;3.00;;;;;20.68;36.77;100824.81;5053558;28;46147;-71
2022/12/11 06:38:13;;;;;;;;;3.00;3.00;;;;;20.70;36.63;100820.16;5053936;28;45507;-72
2022/12/11 06:40:39;;;;;;;;;3.00;3.00;;;;;20.70;36.90;100822.81;5054257;28;45525;-72
2022/12/11 06:43:04;;;;;;;;;4.00;4.00;;;;;20.70;36.75;100818.34;5054203;28;45303;-72
2022/12/11 06:45:30;;;;;;;;;3.75;3.50;;;;;20.69;36.59;100813.22;5053902;28;46899;-71
2022/12/11 06:47:57;;;;;;;;;2.75;1.00;;;;;20.70;36.66;100821.00;5035585;27;45472;-72
2022/12/11 06:50:22;;;;;;;;;4.75;4.00;;;;;20.68;36.51;100817.69;5053506;28;45269;-72
2022/12/11 06:52:47;;;;;;;;;2.75;2.75;;;;;20.69;36.56;100819.34;5053977;28;45364;-72
2022/12/11 06:55:13;;;;;;;;;4.25;3.25;;;;;20.69;36.75;100819.34;5038124;28;47146;-72
2022/12/11 06:57:38;;;;;;;;;4.25;2.75;;;;;20.69;36.51;100819.34;5033661;28;45435;-72
2022/12/11 07:00:05;;;;;;;;;3.75;2.50;;;;;20.68;36.46;100812.41;5033605;28;45379;-71
2022/12/11 07:02:30;;;;;;;;;5.00;3.75;;;;;20.67;36.76;100818.69;5033766;28;45470;-72
2022/12/11 07:04:55;;;;;;;;;4.75;3.25;;;;;20.68;36.75;100816.88;5033220;27;46137;-72
2022/12/11 07:07:21;;;;;;;;;1.75;1.75;;;;;20.67;36.55;100812.56;5033640;28;45632;-71
2022/12/11 07:09:46;;;;;;;;;2.25;2.25;;;;;20.66;36.68;100811.75;5033744;28;45296;-71
2022/12/11 07:12:11;;;;;;;;;3.75;2.75;;;;;20.66;36.71;100814.38;5033750;28;45421;-72
2022/12/11 07:14:37;;;;;;;;;5.75;3.50;;;;;20.56;36.61;100808.47;5033555;28;47208;-71
2022/12/11 07:17:02;;;;;;;;;3.00;3.00;;;;;20.66;36.59;100818.88;5033391;28;45384;-71
2022/12/11 07:19:28;;;;;;;;;5.25;3.50;;;;;20.59;36.00;100816.06;5033163;28;45472;-72
2022/12/11 07:21:53;;;;;;;;;3.00;2.25;;;;;20.66;36.58;100830.25;5033601;28;45394;-71
2022/12/11 07:24:18;;;;;;;;;4.25;2.50;;;;;20.60;36.49;100823.03;5032071;28;45381;-72
2022/12/11 07:26:44;;;;;;;;;4.00;3.00;;;;;20.60;36.21;100821.19;5033311;28;45362;-72
2022/12/11 07:29:10;;;;;;;;;2.00;2.00;;;;;20.65;36.25;100828.63;5033404;28;45321;-71
2022/12/11 07:31:35;;;;;;;;;3.75;3.00;;;;;20.64;36.23;100824.31;5037053;27;45442;-72
2022/12/11 07:34:04;;;;;;;;;3.00;3.00;;;;;20.65;36.27;100830.44;5053021;28;46301;-71
2022/12/11 07:36:29;;;;;;;;;2.00;2.00;;;;;20.51;36.50;100817.75;5053295;28;45272;-71
2022/12/11 07:38:55;;;;;;;;;2.75;2.75;;;;;20.66;36.21;100840.03;5053354;28;45480;-71
2022/12/11 07:41:22;;;;;;;;;3.25;2.75;;;;;20.58;36.28;100831.09;5053317;28;45374;-71
2022/12/11 07:43:48;;;;;;;;;2.00;2.00;;;;;20.67;36.14;100839.84;5053104;28;46133;-71
2022/12/11 07:46:17;;;;;;;;;4.00;3.00;;;;;20.64;36.38;100816.38;5053161;28;45380;-71
2022/12/11 07:48:44;;;;;;;;;3.00;3.00;;;;;20.66;36.12;100826.81;5052880;28;45420;-71
2022/12/11 07:51:15;;;;;;;;;3.25;3.25;;;;;20.67;36.46;100844.28;5053132;27;45510;-72
2022/12/11 07:53:41;;;;;;;;;4.00;3.00;;;;;20.67;36.44;100834.56;5050178;28;45919;-72
2022/12/11 07:56:07;;;;;;;;;3.00;2.00;;;;;20.59;36.54;100819.53;5033050;28;45409;-71
2022/12/11 07:58:33;;;;;;;;;4.00;4.00;;;;;20.67;36.37;100834.56;5033008;28;45281;-72
2022/12/11 08:00:58;;;;;;;;;4.75;3.00;;;;;20.67;36.31;100831.06;5032788;28;45426;-73
2022/12/11 08:03:24;;;;;;;;;3.00;3.00;;;;;20.67;36.44;100829.25;5032481;28;45978;-71
2022/12/11 08:05:50;;;;;;;;;2.25;2.25;;;;;20.67;36.21;100828.44;5032884;28;45282;-72
2022/12/11 08:08:16;;;;;;;;;3.25;2.50;;;;;20.65;36.28;100817.22;5033033;28;45405;-72
2022/12/11 08:10:42;;;;;;;;;2.00;2.00;;;;;20.65;36.23;100825.16;5032863;28;45461;-72
2022/12/11 08:13:07;;;;;;;;;2.25;2.25;;;;;20.65;36.23;100820.69;5032536;28;46271;-72
2022/12/11 08:15:33;;;;;;;;;4.00;2.50;;;;;20.66;36.45;100822.31;5032708;28;45493;-72
2022/12/11 08:17:58;;;;;;;;;5.00;3.00;;;;;20.66;36.38;100813.59;5032556;28;45343;-72
2022/12/11 08:20:24;;;;;;;;;3.00;3.00;;;;;20.66;36.31;100814.38;5032599;28;45424;-72
2022/12/11 08:22:49;;;;;;;;;2.75;2.75;;;;;20.68;36.30;100811.59;5032505;28;46190;-72
2022/12/11 08:25:15;;;;;;;;;2.00;2.00;;;;;20.68;36.35;100819.53;5032642;28;45401;-72
2022/12/11 08:27:40;;;;;;;;;2.75;2.75;;;;;20.68;36.58;100825.63;5032689;28;45350;-72
2022/12/11 08:30:06;;;;;;;;;2.33;1.67;;;;;20.65;36.83;100811.91;5032556;28;45357;-72
2022/12/11 08:32:32;;;;;;;;;3.00;2.00;;;;;20.69;36.59;100813.22;5043545;28;45557;-72
2022/12/11 08:34:58;;;;;;;;;2.25;2.00;;;;;20.71;36.64;100816.53;5054045;28;45346;-72
2022/12/11 08:37:23;;;;;;;;;3.75;2.75;;;;;20.72;36.47;100816.34;5055613;28;45265;-73
2022/12/11 08:39:48;;;;;;;;;2.00;2.00;;;;;20.72;35.97;100803.13;5055486;28;45491;-72
2022/12/11 08:42:13;;;;;;;;;4.50;4.50;;;;;20.69;36.35;100811.41;5055294;28;46328;-70
2022/12/11 08:44:39;;;;;;;;;2.75;2.00;;;;;20.72;36.32;100810.22;5055436;28;45402;-69
2022/12/11 08:47:04;;;;;;;;;2.00;2.00;;;;;20.71;36.32;100806.75;5055407;28;45218;-70
2022/12/11 08:49:29;;;;;;;;;2.25;2.00;;;;;20.72;36.65;100812.88;5055489;28;45391;-70
2022/12/11 08:51:55;;;;;;;;;1.50;1.50;;;;;20.69;36.71;100807.94;5055397;28;45514;-71
2022/12/11 08:54:20;;;;;;;;;4.00;3.00;;;;;20.68;36.60;100798.38;5047125;28;45312;-71
2022/12/11 08:56:45;;;;;;;;;4.00;3.00;;;;;20.77;36.85;100812.34;5035421;28;45470;-71
2022/12/11 08:59:11;;;;;;;;;1.75;1.50;;;;;20.78;36.70;100811.38;5033770;28;45342;-70
2022/12/11 09:01:36;;;;;;;;;4.25;3.00;;;;;20.76;36.71;100808.91;5033811;28;46300;-71
2022/12/11 09:04:01;;;;;;;;;1.50;1.50;;;;;20.79;36.94;100800.59;5034096;28;45389;-70
2022/12/11 09:06:29;;;;;;;;;2.50;2.50;;;;;20.80;36.90;100810.22;5034956;28;45341;-70
2022/12/11 09:08:57;;;;;;;;;1.00;1.00;;;;;20.79;37.40;100805.09;5034236;28;45370;-70
2022/12/11 09:11:25;;;;;;;;;2.00;2.00;;;;;20.81;37.28;100808.38;5034461;28;46215;-69
2022/12/11 09:13:51;;;;;;;;;2.00;2.00;;;;;20.82;37.07;100812.66;5034906;28;45451;-72
2022/12/11 09:16:19;;;;;;;;;2.67;2.67;;;;;20.82;37.35;100810.03;5034225;28;45386;-70
2022/12/11 09:18:49;;;;;;;;;2.25;2.25;;;;;20.85;37.13;100817.63;5019341;27;45540;-72
2022/12/11 09:21:18;;;;;;;;;3.00;3.00;;;;;20.87;37.24;100818.25;5030630;28;45404;-72
2022/12/11 09:23:44;;;;;;;;;3.00;2.00;;;;;20.85;37.33;100821.09;5034594;28;45392;-72
2022/12/11 09:26:12;;;;;;;;;2.00;2.00;;;;;20.90;36.71;100825.84;5034858;28;45361;-72
2022/12/11 09:28:38;;;;;;;;;2.00;2.00;;;;;20.90;36.87;100811.78;5034826;28;45298;-71
2022/12/11 09:31:13;;;;;;;;;3.00;2.00;;;;;20.91;37.32;100824.03;5034203;28;47054;-71
2022/12/11 09:33:39;;;;;;;;;4.67;1.00;;;;;20.93;37.05;100822.03;5034395;28;45292;-69
2022/12/11 09:36:05;;;;;;;;;2.00;2.00;;;;;20.92;36.92;100823.84;5033965;28;45402;-72
2022/12/11 09:38:32;;;;;;;;;5.00;2.67;;;;;20.92;36.93;100826.50;5034554;28;45364;-72
2022/12/11 09:40:58;;;;;;;;;2.00;2.00;;;;;20.93;37.16;100837.91;5034010;28;45990;-72
2022/12/11 09:43:32;;;;;;;;;3.75;2.50;;;;;20.92;37.10;100831.78;5034030;28;45321;-71
2022/12/11 09:46:02;;;;;;;;;2.00;2.00;;;;;20.94;36.79;100831.63;5033438;27;45447;-71
2022/12/11 09:48:32;;;;;;;;;4.75;2.00;;;;;20.92;37.10;100829.13;5016724;28;45522;-71
2022/12/11 09:50:57;;;;;;;;;2.25;2.25;;;;;20.94;36.88;100831.63;5034419;28;47205;-71
2022/12/11 09:53:28;;;;;;;;;3.00;3.00;;;;;20.92;36.90;100837.06;5034190;28;45476;-71
2022/12/11 09:56:13;;;;;;;;;4.75;2.00;;;;;20.85;37.06;100817.63;5034630;28;45473;-71
2022/12/11 09:59:06;;;;;;;;;3.00;3.00;;;;;20.90;36.99;100825.84;5034516;28;45266;-71
2022/12/11 10:01:39;;;;;;;;;1.67;1.67;;;;;20.96;36.62;100834.91;5034082;28;46984;-71
2022/12/11 10:04:39;;;;;;;;;0.00;0.00;;;;;20.96;37.07;100841.03;5034278;28;45338;-71
2022/12/11 10:07:18;;;;;;;;;3.00;1.25;;;;;20.93;36.69;100837.91;5075813;28;45339;-71
2022/12/11 10:10:01;;;;;;;;;2.67;2.00;;;;;20.96;37.11;100840.22;5074716;28;45354;-71
2022/12/11 10:12:44;;;;;;;;;2.67;2.67;;;;;20.96;36.52;100834.91;5075428;28;46356;-71
2022/12/11 10:15:35;;;;;;;;;1.67;1.67;;;;;20.96;36.77;100840.22;5075304;28;45397;-71
2022/12/11 10:18:05;;;;;;;;;1.75;1.75;;;;;20.95;37.04;100852.59;5075381;28;45439;-71
2022/12/11 10:20:37;;;;;;;;;3.75;2.00;;;;;20.90;37.04;100836.44;5075485;28;45382;-70
2022/12/11 10:23:06;;;;;;;;;2.00;1.00;;;;;20.83;36.77;100830.19;5058974;28;46588;-71
2022/12/11 10:25:36;;;;;;;;;1.50;1.50;;;;;20.94;36.78;100845.69;5075517;28;45574;-71
2022/12/11 10:28:13;;;;;;;;;3.00;3.00;;;;;20.95;36.62;100844.66;5074937;28;45261;-71
2022/12/11 10:30:45;;;;;;;;;2.33;1.00;;;;;20.93;36.81;100845.84;5075339;28;45521;-71
2022/12/11 10:33:10;;;;;;;;;4.00;2.33;;;;;20.96;36.79;100850.78;5092158;27;46046;-71
2022/12/11 10:35:42;;;;;;;;;2.00;2.00;;;;;20.95;36.87;100849.97;5095598;27;45462;-71
2022/12/11 10:38:26;;;;;;;;;2.00;2.00;;;;;20.95;36.93;100847.31;5095691;27;45378;-71
2022/12/11 10:40:59;;;;;;;;;1.00;1.00;;;;;20.96;36.65;100843.69;5095502;27;45466;-71
2022/12/11 10:43:36;;;;;;;;;2.00;2.00;;;;;20.90;36.64;100833.78;5082749;27;46082;-71
2022/12/11 10:46:02;;;;;;;;;2.00;2.00;;;;;20.82;36.37;100813.50;5053806;28;45366;-71
2022/12/11 10:48:28;;;;;;;;;2.67;1.67;;;;;20.88;36.43;100822.56;5054012;28;45413;-72
2022/12/11 10:51:04;;;;;;;;;1.75;1.75;;;;;20.93;36.48;100829.97;5032145;28;45469;-71
2022/12/11 10:53:32;;;;;;;;;2.67;2.00;;;;;20.91;36.78;100827.50;5029035;27;46931;-70
2022/12/11 10:55:58;;;;;;;;;1.00;1.00;;;;;20.93;36.60;100825.50;5033483;27;45334;-71
2022/12/11 10:58:30;;;;;;;;;2.00;2.00;;;;;20.92;36.71;100815.13;5034237;27;45428;-71
2022/12/11 11:01:14;;;;;;;;;2.00;2.00;;;;;20.94;36.75;100819.25;5039024;27;45450;-71
2022/12/11 11:03:56;;;;;;;;;3.67;2.00;;;;;20.95;36.74;100820.03;5031828;27;45467;-71
2022/12/11 11:06:22;;;;;;;;;1.00;1.00;;;;;20.90;37.01;100815.28;5034321;27;45463;-72
2022/12/11 11:08:51;;;;;;;;;2.75;2.00;;;;;20.97;37.22;100828.66;5033045;27;45563;-71
2022/12/11 11:11:24;;;;;;;;;1.00;1.00;;;;;20.97;36.96;100815.41;5033496;27;45460;-72
2022/12/11 11:13:50;;;;;;;;;3.00;2.00;;;;;20.98;36.99;100818.88;5030866;27;46185;-71
2022/12/11 11:16:19;;;;;;;;;2.00;1.00;;;;;20.98;36.89;100813.56;5019346;28;45341;-73
2022/12/11 11:18:52;;;;;;;;;3.00;3.00;;;;;20.98;37.27;100803.81;5030922;28;45406;-71
2022/12/11 11:21:21;;;;;;;;;1.00;1.00;;;;;20.99;37.21;100802.84;5025997;28;45407;-72
2022/12/11 11:23:46;;;;;;;;;2.33;1.00;;;;;20.98;36.67;100811.75;5032591;27;46240;-71
2022/12/11 11:26:12;;;;;;;;;1.00;1.00;;;;;20.85;36.95;100796.47;5031541;27;45571;-72
2022/12/11 11:28:41;;;;;;;;;1.00;1.00;;;;;20.99;36.95;100804.66;5013248;27;45417;-72
2022/12/11 11:31:11;;;;;;;;;2.75;2.00;;;;;20.92;37.03;100800.06;5020387;28;45337;-71
2022/12/11 11:33:55;;;;;;;;;3.00;2.00;;;;;20.98;36.82;100809.13;5012346;27;46387;-72
2022/12/11 11:36:27;;;;;;;;;3.50;1.50;;;;;20.96;36.93;100804.00;5018975;28;45420;-72
2022/12/11 11:39:26;;;;;;;;;2.33;2.33;;;;;20.93;37.17;100795.59;5026535;28;45258;-72
2022/12/11 11:42:26;;;;;;;;;3.00;3.00;;;;;20.95;37.16;100806.81;5012503;28;45475;-73
2022/12/11 11:45:15;;;;;;;;;2.67;1.00;;;;;20.96;37.24;100793.44;5013081;27;47557;-72